Avondale, Missouri
Current Conditions -  °F | °C
As of 6:54 PM on Monday 26 Jan 2015 (Local Time) from KMKC Reporting Station
Clear Clear  
Wind Chill: 52°   Ceiling: Unl
Heat Index: 52°   Visibility: 10mi
Dew Point: 32°   Wind: 0mph
Humidity: 47%   Direction: NA
Pressure: 29.97"   Gusts: NA
Location:  39.1657°N, 94.5231°W
Report Text: KMKC 270054Z 00000KT 10SM CLR 11/00 A2997 RMK AO2 SLP153 T01110000
Loading
Personal Weather Stations






























Interactive Weather Map New forecast layout! Learn more

10-Day Weather Forecast

Advertisements
Track Severe Weather on mobile